Centro Rio Mayo, Argentina
Current Conditions -  °F | °C
As of 5:00 AM on Friday 31 Oct 2014 (Local Time) from SCBA Reporting Station
Clear Clear  
Wind Chill: 20°   Ceiling: Unl
Heat Index: 27°   Visibility: 6mi
Dew Point: 23°   Wind: 6mph
Humidity: 86%   Direction: 240°WSW
Pressure: 30.03"   Gusts: NA
Location:  45.57°S, 71.05°W
Report Text: SCBA 310800Z AUTO 24005KT CAVOK M03/M05 Q1017
Loading
Personal Weather Stations






























Interactive Weather Map
Tropical Storm Tracking
New forecast layout! Learn more

10-Day Weather Forecast

Advertisements
Track Severe Weather on mobile